sensor_id;sensor_type;location;lat;lon;timestamp;pressure;altitude;pressure_sealevel;temperature;humidity
21988;BME280;11158;53.404;-1.510;2022-08-19T00:01:17;99929.41;;;22.85;57.52
21988;BME280;11158;53.404;-1.510;2022-08-19T00:03:43;99919.59;;;22.84;57.49
21988;BME280;11158;53.404;-1.510;2022-08-19T00:06:09;99927.22;;;23.02;57.28
21988;BME280;11158;53.404;-1.510;2022-08-19T00:08:35;99925.22;;;23.18;56.33
21988;BME280;11158;53.404;-1.510;2022-08-19T00:11:02;99932.09;;;23.05;56.72
21988;BME280;11158;53.404;-1.510;2022-08-19T00:13:29;99942.44;;;23.08;56.74
21988;BME280;11158;53.404;-1.510;2022-08-19T00:15:55;99940.84;;;22.87;57.69
21988;BME280;11158;53.404;-1.510;2022-08-19T00:18:22;99950.97;;;22.76;57.14
21988;BME280;11158;53.404;-1.510;2022-08-19T00:20:47;99943.56;;;21.53;57.34
21988;BME280;11158;53.404;-1.510;2022-08-19T00:23:13;99943.78;;;20.84;56.11
21988;BME280;11158;53.404;-1.510;2022-08-19T00:25:40;99957.38;;;20.84;55.00
21988;BME280;11158;53.404;-1.510;2022-08-19T00:28:06;99959.50;;;20.77;54.75
21988;BME280;11158;53.404;-1.510;2022-08-19T00:30:33;99969.91;;;20.90;54.41
21988;BME280;11158;53.404;-1.510;2022-08-19T00:32:59;99976.56;;;21.20;53.36
21988;BME280;11158;53.404;-1.510;2022-08-19T00:35:25;99978.47;;;21.19;52.97
21988;BME280;11158;53.404;-1.510;2022-08-19T00:37:53;99974.97;;;21.29;52.89
21988;BME280;11158;53.404;-1.510;2022-08-19T00:40:20;99974.59;;;21.05;53.21
21988;BME280;11158;53.404;-1.510;2022-08-19T00:42:45;99979.13;;;20.89;53.46
21988;BME280;11158;53.404;-1.510;2022-08-19T00:45:17;99980.19;;;21.36;52.57
21988;BME280;11158;53.404;-1.510;2022-08-19T00:47:44;99977.25;;;21.52;51.63
21988;BME280;11158;53.404;-1.510;2022-08-19T00:50:11;99981.25;;;21.34;51.06
21988;BME280;11158;53.404;-1.510;2022-08-19T00:52:41;99978.91;;;21.53;50.97
21988;BME280;11158;53.404;-1.510;2022-08-19T00:55:14;99982.09;;;21.35;51.39
21988;BME280;11158;53.404;-1.510;2022-08-19T00:57:44;99987.31;;;20.94;51.87
21988;BME280;11158;53.404;-1.510;2022-08-19T01:00:15;99989.59;;;21.18;50.97
21988;BME280;11158;53.404;-1.510;2022-08-19T01:02:59;99989.09;;;21.26;50.79
21988;BME280;11158;53.404;-1.510;2022-08-19T01:05:27;99989.88;;;20.68;51.45
21988;BME280;11158;53.404;-1.510;2022-08-19T01:07:59;99981.81;;;20.84;51.15
21988;BME280;11158;53.404;-1.510;2022-08-19T01:10:30;99977.72;;;20.81;49.83
21988;BME280;11158;53.404;-1.510;2022-08-19T01:12:58;99983.38;;;20.75;50.72
21988;BME280;11158;53.404;-1.510;2022-08-19T01:15:29;99981.44;;;21.12;49.33
21988;BME280;11158;53.404;-1.510;2022-08-19T01:17:57;99987.03;;;21.43;48.79
21988;BME280;11158;53.404;-1.510;2022-08-19T01:20:25;99980.84;;;21.58;48.47
21988;BME280;11158;53.404;-1.510;2022-08-19T01:22:54;99986.59;;;21.82;48.29
21988;BME280;11158;53.404;-1.510;2022-08-19T01:25:24;99988.50;;;21.82;48.20
21988;BME280;11158;53.404;-1.510;2022-08-19T01:27:52;99995.00;;;21.70;48.76
21988;BME280;11158;53.404;-1.510;2022-08-19T01:30:27;99997.66;;;21.50;49.63
21988;BME280;11158;53.404;-1.510;2022-08-19T01:32:54;99996.41;;;21.25;49.99
21988;BME280;11158;53.404;-1.510;2022-08-19T01:35:20;99993.03;;;21.50;49.43
21988;BME280;11158;53.404;-1.510;2022-08-19T01:37:52;99996.16;;;20.79;50.98
21988;BME280;11158;53.404;-1.510;2022-08-19T01:40:19;100001.22;;;20.60;51.23
21988;BME280;11158;53.404;-1.510;2022-08-19T01:42:49;99994.25;;;20.75;50.23
21988;BME280;11158;53.404;-1.510;2022-08-19T01:45:17;100004.91;;;20.86;49.99
21988;BME280;11158;53.404;-1.510;2022-08-19T01:47:43;100001.31;;;20.76;50.22
21988;BME280;11158;53.404;-1.510;2022-08-19T01:50:10;100006.25;;;20.51;51.23
21988;BME280;11158;53.404;-1.510;2022-08-19T01:52:39;100002.69;;;20.46;50.90
21988;BME280;11158;53.404;-1.510;2022-08-19T01:55:09;100003.59;;;20.24;51.60
21988;BME280;11158;53.404;-1.510;2022-08-19T01:57:35;100004.16;;;19.99;52.37
21988;BME280;11158;53.404;-1.510;2022-08-19T02:00:05;100009.50;;;19.89;52.71
21988;BME280;11158;53.404;-1.510;2022-08-19T02:02:31;100009.78;;;19.93;52.69
21988;BME280;11158;53.404;-1.510;2022-08-19T02:04:57;100002.06;;;20.06;52.37
21988;BME280;11158;53.404;-1.510;2022-08-19T02:07:23;100016.47;;;19.80;53.20
21988;BME280;11158;53.404;-1.510;2022-08-19T02:09:49;100014.81;;;19.79;53.10
21988;BME280;11158;53.404;-1.510;2022-08-19T02:12:15;100031.34;;;19.77;52.92
21988;BME280;11158;53.404;-1.510;2022-08-19T02:14:42;100031.63;;;19.37;54.64
21988;BME280;11158;53.404;-1.510;2022-08-19T02:17:08;100029.97;;;19.58;53.87
21988;BME280;11158;53.404;-1.510;2022-08-19T02:19:34;100029.59;;;19.49;54.15
21988;BME280;11158;53.404;-1.510;2022-08-19T02:22:00;100049.63;;;19.04;55.32
21988;BME280;11158;53.404;-1.510;2022-08-19T02:24:27;100046.91;;;19.04;55.30
21988;BME280;11158;53.404;-1.510;2022-08-19T02:26:53;100051.75;;;19.02;54.91
21988;BME280;11158;53.404;-1.510;2022-08-19T02:29:19;100052.22;;;19.16;54.43
21988;BME280;11158;53.404;-1.510;2022-08-19T02:31:45;100053.75;;;19.51;53.40
21988;BME280;11158;53.404;-1.510;2022-08-19T02:34:11;100049.41;;;19.50;53.25
21988;BME280;11158;53.404;-1.510;2022-08-19T02:36:37;100053.38;;;19.64;52.83
21988;BME280;11158;53.404;-1.510;2022-08-19T02:39:03;100048.28;;;19.90;52.12
21988;BME280;11158;53.404;-1.510;2022-08-19T02:41:32;100043.88;;;19.83;52.30
21988;BME280;11158;53.404;-1.510;2022-08-19T02:44:01;100044.34;;;19.75;52.33
21988;BME280;11158;53.404;-1.510;2022-08-19T02:46:30;100051.50;;;19.86;52.15
21988;BME280;11158;53.404;-1.510;2022-08-19T02:48:59;100049.28;;;19.83;52.01
21988;BME280;11158;53.404;-1.510;2022-08-19T02:51:38;100052.09;;;19.88;51.85
21988;BME280;11158;53.404;-1.510;2022-08-19T02:54:05;100055.00;;;19.65;52.12
21988;BME280;11158;53.404;-1.510;2022-08-19T02:56:34;100052.41;;;19.70;51.90
21988;BME280;11158;53.404;-1.510;2022-08-19T02:58:59;100061.84;;;19.07;53.42
21988;BME280;11158;53.404;-1.510;2022-08-19T03:01:28;100068.22;;;19.17;52.79
21988;BME280;11158;53.404;-1.510;2022-08-19T03:03:55;100066.81;;;19.15;52.75
21988;BME280;11158;53.404;-1.510;2022-08-19T03:06:21;100075.69;;;19.10;52.85
21988;BME280;11158;53.404;-1.510;2022-08-19T03:08:48;100076.97;;;18.86;53.69
21988;BME280;11158;53.404;-1.510;2022-08-19T03:11:21;100072.09;;;19.04;52.72
21988;BME280;11158;53.404;-1.510;2022-08-19T03:13:47;100073.84;;;19.33;52.23
21988;BME280;11158;53.404;-1.510;2022-08-19T03:16:14;100075.44;;;19.51;51.71
21988;BME280;11158;53.404;-1.510;2022-08-19T03:18:40;100082.88;;;19.60;51.65
21988;BME280;11158;53.404;-1.510;2022-08-19T03:21:06;100083.16;;;19.59;51.61
21988;BME280;11158;53.404;-1.510;2022-08-19T03:23:32;100091.06;;;19.82;51.13
21988;BME280;11158;53.404;-1.510;2022-08-19T03:25:57;100088.28;;;19.77;51.16
21988;BME280;11158;53.404;-1.510;2022-08-19T03:28:23;100085.69;;;19.65;51.20
21988;BME280;11158;53.404;-1.510;2022-08-19T03:31:09;100093.59;;;19.50;52.06
21988;BME280;11158;53.404;-1.510;2022-08-19T03:33:35;100096.69;;;19.59;51.61
21988;BME280;11158;53.404;-1.510;2022-08-19T03:36:21;100095.97;;;19.46;51.65
21988;BME280;11158;53.404;-1.510;2022-08-19T03:38:52;100091.88;;;19.22;52.25
21988;BME280;11158;53.404;-1.510;2022-08-19T03:41:22;100104.19;;;19.13;52.12
21988;BME280;11158;53.404;-1.510;2022-08-19T03:43:48;100100.91;;;18.94;52.81
21988;BME280;11158;53.404;-1.510;2022-08-19T03:46:18;100109.72;;;18.72;53.50
21988;BME280;11158;53.404;-1.510;2022-08-19T03:48:46;100107.78;;;18.84;53.04
21988;BME280;11158;53.404;-1.510;2022-08-19T03:51:30;100104.19;;;18.79;53.11
21988;BME280;11158;53.404;-1.510;2022-08-19T03:53:58;100109.03;;;18.77;53.33
21988;BME280;11158;53.404;-1.510;2022-08-19T03:56:25;100099.88;;;18.49;54.20
21988;BME280;11158;53.404;-1.510;2022-08-19T03:58:52;100106.06;;;18.33;54.50
21988;BME280;11158;53.404;-1.510;2022-08-19T04:01:21;100105.50;;;18.31;54.43
21988;BME280;11158;53.404;-1.510;2022-08-19T04:03:47;100110.03;;;18.59;53.79
21988;BME280;11158;53.404;-1.510;2022-08-19T04:06:22;100106.28;;;18.60;53.47
21988;BME280;11158;53.404;-1.510;2022-08-19T04:08:51;100106.91;;;18.50;53.86
21988;BME280;11158;53.404;-1.510;2022-08-19T04:11:19;100106.75;;;18.40;53.98
21988;BME280;11158;53.404;-1.510;2022-08-19T04:13:49;100105.44;;;18.14;54.99
21988;BME280;11158;53.404;-1.510;2022-08-19T04:16:18;100109.00;;;18.03;55.46
21988;BME280;11158;53.404;-1.510;2022-08-19T04:18:43;100114.25;;;18.09;55.14
21988;BME280;11158;53.404;-1.510;2022-08-19T04:21:16;100121.31;;;18.39;54.59
21988;BME280;11158;53.404;-1.510;2022-08-19T04:23:42;100118.44;;;18.29;54.41
21988;BME280;11158;53.404;-1.510;2022-08-19T04:26:12;100115.53;;;18.18;54.41
21988;BME280;11158;53.404;-1.510;2022-08-19T04:28:38;100122.31;;;18.33;54.16
21988;BME280;11158;53.404;-1.510;2022-08-19T04:31:04;100126.59;;;18.46;53.84
21988;BME280;11158;53.404;-1.510;2022-08-19T04:33:30;100126.09;;;17.91;55.70
21988;BME280;11158;53.404;-1.510;2022-08-19T04:35:55;100125.53;;;17.89;55.63
21988;BME280;11158;53.404;-1.510;2022-08-19T04:38:23;100114.91;;;18.28;54.73
21988;BME280;11158;53.404;-1.510;2022-08-19T04:40:50;100118.75;;;18.32;53.83
21988;BME280;11158;53.404;-1.510;2022-08-19T04:43:37;100129.22;;;18.00;55.49
21988;BME280;11158;53.404;-1.510;2022-08-19T04:46:08;100136.13;;;18.19;54.85
21988;BME280;11158;53.404;-1.510;2022-08-19T04:48:39;100144.72;;;18.05;54.89
21988;BME280;11158;53.404;-1.510;2022-08-19T04:51:10;100147.16;;;17.89;55.49
21988;BME280;11158;53.404;-1.510;2022-08-19T04:53:37;100154.88;;;17.97;55.32
21988;BME280;11158;53.404;-1.510;2022-08-19T04:56:07;100159.09;;;18.05;55.13
21988;BME280;11158;53.404;-1.510;2022-08-19T04:58:34;100161.97;;;17.87;55.34
21988;BME280;11158;53.404;-1.510;2022-08-19T05:01:00;100155.38;;;17.83;55.40
21988;BME280;11158;53.404;-1.510;2022-08-19T05:03:28;100169.38;;;17.44;56.96
21988;BME280;11158;53.404;-1.510;2022-08-19T05:05:58;100171.25;;;17.55;56.31
21988;BME280;11158;53.404;-1.510;2022-08-19T05:08:23;100172.66;;;17.23;57.30
21988;BME280;11158;53.404;-1.510;2022-08-19T05:10:51;100173.91;;;17.20;57.42
21988;BME280;11158;53.404;-1.510;2022-08-19T05:13:18;100169.78;;;16.94;58.37
21988;BME280;11158;53.404;-1.510;2022-08-19T05:15:53;100180.47;;;17.01;58.51
21988;BME280;11158;53.404;-1.510;2022-08-19T05:18:19;100173.09;;;17.31;57.49
21988;BME280;11158;53.404;-1.510;2022-08-19T05:21:09;100169.94;;;17.58;56.78
21988;BME280;11158;53.404;-1.510;2022-08-19T05:23:53;100177.72;;;17.66;56.10
21988;BME280;11158;53.404;-1.510;2022-08-19T05:26:19;100177.81;;;17.83;56.05
21988;BME280;11158;53.404;-1.510;2022-08-19T05:28:46;100181.81;;;17.69;55.81
21988;BME280;11158;53.404;-1.510;2022-08-19T05:31:12;100199.69;;;17.82;55.61
21988;BME280;11158;53.404;-1.510;2022-08-19T05:33:38;100198.09;;;18.09;54.92
21988;BME280;11158;53.404;-1.510;2022-08-19T05:36:05;100196.13;;;18.16;55.16
21988;BME280;11158;53.404;-1.510;2022-08-19T05:38:33;100205.13;;;18.22;54.28
21988;BME280;11158;53.404;-1.510;2022-08-19T05:41:06;100200.84;;;18.38;54.18
21988;BME280;11158;53.404;-1.510;2022-08-19T05:43:32;100206.75;;;18.63;53.30
21988;BME280;11158;53.404;-1.510;2022-08-19T05:45:59;100213.00;;;18.35;54.05
21988;BME280;11158;53.404;-1.510;2022-08-19T05:48:25;100204.63;;;18.66;53.52
21988;BME280;11158;53.404;-1.510;2022-08-19T05:50:51;100212.03;;;18.99;52.43
21988;BME280;11158;53.404;-1.510;2022-08-19T05:53:18;100209.66;;;19.19;52.01
21988;BME280;11158;53.404;-1.510;2022-08-19T05:55:43;100216.25;;;19.40;51.70
21988;BME280;11158;53.404;-1.510;2022-08-19T05:58:09;100212.13;;;20.82;48.23
21988;BME280;11158;53.404;-1.510;2022-08-19T06:00:36;100208.41;;;22.73;43.71
21988;BME280;11158;53.404;-1.510;2022-08-19T06:03:04;100200.53;;;24.39;40.22
21988;BME280;11158;53.404;-1.510;2022-08-19T06:05:30;100198.13;;;24.82;37.87
21988;BME280;11158;53.404;-1.510;2022-08-19T06:07:56;100187.25;;;25.12;37.44
21988;BME280;11158;53.404;-1.510;2022-08-19T06:10:24;100170.63;;;25.66;36.37
21988;BME280;11158;53.404;-1.510;2022-08-19T06:12:52;100172.31;;;26.10;35.31
21988;BME280;11158;53.404;-1.510;2022-08-19T06:15:18;100172.41;;;26.43;34.69
21988;BME280;11158;53.404;-1.510;2022-08-19T06:17:43;100172.16;;;27.62;32.52
21988;BME280;11158;53.404;-1.510;2022-08-19T06:20:14;100171.38;;;27.89;31.90
21988;BME280;11158;53.404;-1.510;2022-08-19T06:22:45;100175.63;;;28.96;30.56
21988;BME280;11158;53.404;-1.510;2022-08-19T06:25:13;100178.28;;;29.95;28.76
21988;BME280;11158;53.404;-1.510;2022-08-19T06:27:40;100185.06;;;29.89;29.11
21988;BME280;11158;53.404;-1.510;2022-08-19T06:30:06;100182.94;;;31.13;26.78
21988;BME280;11158;53.404;-1.510;2022-08-19T06:32:32;100182.28;;;30.46;27.50
21988;BME280;11158;53.404;-1.510;2022-08-19T06:34:58;100186.84;;;30.85;26.50
21988;BME280;11158;53.404;-1.510;2022-08-19T06:37:24;100177.78;;;30.67;27.42
21988;BME280;11158;53.404;-1.510;2022-08-19T06:39:51;100185.41;;;29.96;28.23
21988;BME280;11158;53.404;-1.510;2022-08-19T06:42:17;100177.41;;;30.60;27.63
21988;BME280;11158;53.404;-1.510;2022-08-19T06:44:46;100185.63;;;31.39;26.39
21988;BME280;11158;53.404;-1.510;2022-08-19T06:47:18;100174.13;;;31.45;26.05
21988;BME280;11158;53.404;-1.510;2022-08-19T06:49:45;100181.00;;;31.04;25.99
21988;BME280;11158;53.404;-1.510;2022-08-19T06:52:11;100184.25;;;30.72;26.95
21988;BME280;11158;53.404;-1.510;2022-08-19T06:54:41;100194.84;;;29.10;28.59
21988;BME280;11158;53.404;-1.510;2022-08-19T06:57:10;100196.78;;;28.50;29.38
21988;BME280;11158;53.404;-1.510;2022-08-19T06:59:40;100193.09;;;28.55;29.71
21988;BME280;11158;53.404;-1.510;2022-08-19T07:02:06;100200.72;;;28.44;29.56
21988;BME280;11158;53.404;-1.510;2022-08-19T07:04:33;100195.72;;;28.60;29.56
21988;BME280;11158;53.404;-1.510;2022-08-19T07:07:02;100189.38;;;29.72;27.27
21988;BME280;11158;53.404;-1.510;2022-08-19T07:09:28;100191.13;;;29.37;28.28
21988;BME280;11158;53.404;-1.510;2022-08-19T07:11:54;100187.25;;;30.18;27.17
21988;BME280;11158;53.404;-1.510;2022-08-19T07:14:25;100203.19;;;29.04;28.50
21988;BME280;11158;53.404;-1.510;2022-08-19T07:16:53;100205.72;;;29.37;28.00
21988;BME280;11158;53.404;-1.510;2022-08-19T07:19:21;100191.06;;;30.83;25.59
21988;BME280;11158;53.404;-1.510;2022-08-19T07:21:50;100201.44;;;29.85;26.99
21988;BME280;11158;53.404;-1.510;2022-08-19T07:24:19;100199.03;;;29.92;27.04
21988;BME280;11158;53.404;-1.510;2022-08-19T07:26:46;100198.38;;;30.70;26.62
21988;BME280;11158;53.404;-1.510;2022-08-19T07:29:12;100190.41;;;29.85;27.07
21988;BME280;11158;53.404;-1.510;2022-08-19T07:31:38;100218.00;;;26.77;31.85
21988;BME280;11158;53.404;-1.510;2022-08-19T07:34:10;100226.97;;;24.59;35.42
21988;BME280;11158;53.404;-1.510;2022-08-19T07:36:39;100237.94;;;23.28;38.95
21988;BME280;11158;53.404;-1.510;2022-08-19T07:39:09;100234.66;;;23.00;39.64
21988;BME280;11158;53.404;-1.510;2022-08-19T07:41:35;100227.84;;;23.28;39.29
21988;BME280;11158;53.404;-1.510;2022-08-19T07:44:04;100240.47;;;22.46;40.78
21988;BME280;11158;53.404;-1.510;2022-08-19T07:46:31;100241.88;;;22.06;41.15
21988;BME280;11158;53.404;-1.510;2022-08-19T07:48:57;100246.97;;;21.49;42.17
21988;BME280;11158;53.404;-1.510;2022-08-19T07:51:22;100244.88;;;21.29;42.74
21988;BME280;11158;53.404;-1.510;2022-08-19T07:53:49;100248.97;;;21.00;43.38
21988;BME280;11158;53.404;-1.510;2022-08-19T07:56:18;100257.69;;;20.53;43.81
21988;BME280;11158;53.404;-1.510;2022-08-19T07:58:45;100251.81;;;20.39;44.91
21988;BME280;11158;53.404;-1.510;2022-08-19T08:01:14;100264.34;;;20.45;44.15
21988;BME280;11158;53.404;-1.510;2022-08-19T08:03:41;100266.38;;;20.55;44.60
21988;BME280;11158;53.404;-1.510;2022-08-19T08:06:25;100265.75;;;20.91;43.55
21988;BME280;11158;53.404;-1.510;2022-08-19T08:09:10;100269.66;;;20.79;43.01
21988;BME280;11158;53.404;-1.510;2022-08-19T08:11:46;100263.16;;;21.39;41.78
21988;BME280;11158;53.404;-1.510;2022-08-19T08:14:16;100268.75;;;21.49;41.95
21988;BME280;11158;53.404;-1.510;2022-08-19T08:16:42;100266.41;;;21.36;41.64
21988;BME280;11158;53.404;-1.510;2022-08-19T08:19:09;100265.78;;;21.24;42.01
21988;BME280;11158;53.404;-1.510;2022-08-19T08:21:34;100270.22;;;21.35;41.53
21988;BME280;11158;53.404;-1.510;2022-08-19T08:24:01;100272.44;;;21.75;41.11
21988;BME280;11158;53.404;-1.510;2022-08-19T08:26:27;100272.03;;;21.94;40.26
21988;BME280;11158;53.404;-1.510;2022-08-19T08:28:53;100271.31;;;21.07;42.29
21988;BME280;11158;53.404;-1.510;2022-08-19T08:31:19;100274.63;;;21.41;41.99
21988;BME280;11158;53.404;-1.510;2022-08-19T08:33:45;100268.97;;;21.48;42.32
21988;BME280;11158;53.404;-1.510;2022-08-19T08:36:12;100266.75;;;21.77;40.50
21988;BME280;11158;53.404;-1.510;2022-08-19T08:38:40;100269.94;;;22.06;40.42
21988;BME280;11158;53.404;-1.510;2022-08-19T08:44:17;100276.72;;;22.04;39.39
21988;BME280;11158;53.404;-1.510;2022-08-19T08:46:48;100267.00;;;22.18;38.55
21988;BME280;11158;53.404;-1.510;2022-08-19T08:49:26;100261.94;;;22.32;38.28
21988;BME280;11158;53.404;-1.510;2022-08-19T08:52:05;100263.19;;;22.97;36.96
21988;BME280;11158;53.404;-1.510;2022-08-19T08:54:41;100262.94;;;22.89;37.08
21988;BME280;11158;53.404;-1.510;2022-08-19T08:57:26;100254.34;;;21.96;37.74
21988;BME280;11158;53.404;-1.510;2022-08-19T08:59:54;100265.69;;;22.26;37.01
21988;BME280;11158;53.404;-1.510;2022-08-19T09:02:22;100267.00;;;22.18;36.75
21988;BME280;11158;53.404;-1.510;2022-08-19T09:04:48;100261.78;;;22.69;35.64
21988;BME280;11158;53.404;-1.510;2022-08-19T09:15:40;100272.75;;;22.22;36.95
21988;BME280;11158;53.404;-1.510;2022-08-19T09:18:08;100271.66;;;22.96;35.80
21988;BME280;11158;53.404;-1.510;2022-08-19T09:20:34;100276.66;;;22.41;36.60
21988;BME280;11158;53.404;-1.510;2022-08-19T09:23:00;100275.25;;;23.17;35.57
21988;BME280;11158;53.404;-1.510;2022-08-19T09:25:26;100272.53;;;23.68;34.91
21988;BME280;11158;53.404;-1.510;2022-08-19T09:27:53;100278.38;;;25.02;32.90
21988;BME280;11158;53.404;-1.510;2022-08-19T09:30:23;100270.00;;;24.18;33.57
21988;BME280;11158;53.404;-1.510;2022-08-19T09:32:50;100279.38;;;23.40;35.11
21988;BME280;11158;53.404;-1.510;2022-08-19T09:35:21;100284.81;;;23.66;34.39
21988;BME280;11158;53.404;-1.510;2022-08-19T09:37:48;100279.94;;;23.78;33.61
21988;BME280;11158;53.404;-1.510;2022-08-19T09:40:16;100284.81;;;23.25;35.56
21988;BME280;11158;53.404;-1.510;2022-08-19T09:42:43;100287.91;;;22.12;37.68
21988;BME280;11158;53.404;-1.510;2022-08-19T09:45:09;100285.72;;;22.04;37.91
21988;BME280;11158;53.404;-1.510;2022-08-19T09:47:36;100285.72;;;21.67;38.95
21988;BME280;11158;53.404;-1.510;2022-08-19T09:50:05;100279.38;;;22.41;36.93
21988;BME280;11158;53.404;-1.510;2022-08-19T09:52:31;100277.44;;;22.31;37.51
21988;BME280;11158;53.404;-1.510;2022-08-19T09:54:58;100284.25;;;21.91;37.76
21988;BME280;11158;53.404;-1.510;2022-08-19T09:57:24;100281.16;;;22.20;38.14
21988;BME280;11158;53.404;-1.510;2022-08-19T09:59:50;100277.47;;;21.94;37.61
21988;BME280;11158;53.404;-1.510;2022-08-19T10:02:15;100288.69;;;21.60;38.33
21988;BME280;11158;53.404;-1.510;2022-08-19T10:04:41;100274.94;;;21.82;37.86
21988;BME280;11158;53.404;-1.510;2022-08-19T10:07:25;100295.59;;;21.78;36.50
21988;BME280;11158;53.404;-1.510;2022-08-19T10:09:51;100297.28;;;21.47;36.90
21988;BME280;11158;53.404;-1.510;2022-08-19T10:12:17;100289.19;;;21.94;36.49
21988;BME280;11158;53.404;-1.510;2022-08-19T10:14:43;100276.97;;;22.50;35.33
21988;BME280;11158;53.404;-1.510;2022-08-19T10:17:08;100278.91;;;22.59;34.63
21988;BME280;11158;53.404;-1.510;2022-08-19T10:19:34;100280.44;;;23.18;34.47
21988;BME280;11158;53.404;-1.510;2022-08-19T10:22:05;100289.63;;;22.97;34.44
21988;BME280;11158;53.404;-1.510;2022-08-19T10:24:34;100283.47;;;23.53;33.17
21988;BME280;11158;53.404;-1.510;2022-08-19T10:27:00;100277.88;;;22.71;34.51
21988;BME280;11158;53.404;-1.510;2022-08-19T10:29:29;100274.13;;;24.00;32.59
21988;BME280;11158;53.404;-1.510;2022-08-19T10:31:55;100273.00;;;24.86;31.00
21988;BME280;11158;53.404;-1.510;2022-08-19T10:34:22;100275.28;;;24.69;30.81
21988;BME280;11158;53.404;-1.510;2022-08-19T10:36:48;100272.63;;;24.43;31.51
21988;BME280;11158;53.404;-1.510;2022-08-19T10:39:13;100274.69;;;24.77;31.05
21988;BME280;11158;53.404;-1.510;2022-08-19T10:41:39;100277.13;;;24.84;31.13
21988;BME280;11158;53.404;-1.510;2022-08-19T10:44:10;100269.34;;;25.75;29.87
21988;BME280;11158;53.404;-1.510;2022-08-19T10:46:39;100279.38;;;25.16;30.29
21988;BME280;11158;53.404;-1.510;2022-08-19T10:49:09;100271.09;;;24.22;31.82
21988;BME280;11158;53.404;-1.510;2022-08-19T10:51:37;100280.94;;;24.18;32.01
21988;BME280;11158;53.404;-1.510;2022-08-19T10:54:21;100281.28;;;23.50;32.71
21988;BME280;11158;53.404;-1.510;2022-08-19T10:56:47;100282.06;;;23.14;33.93
21988;BME280;11158;53.404;-1.510;2022-08-19T11:01:48;100276.34;;;25.18;30.22
21988;BME280;11158;53.404;-1.510;2022-08-19T11:04:15;100267.72;;;24.45;30.96
21988;BME280;11158;53.404;-1.510;2022-08-19T11:06:47;100273.84;;;24.17;31.68
21988;BME280;11158;53.404;-1.510;2022-08-19T11:09:18;100271.97;;;23.66;31.98
21988;BME280;11158;53.404;-1.510;2022-08-19T11:11:44;100271.72;;;23.98;30.83
21988;BME280;11158;53.404;-1.510;2022-08-19T11:14:12;100273.72;;;24.53;29.84
21988;BME280;11158;53.404;-1.510;2022-08-19T11:16:39;100268.63;;;24.20;30.64
21988;BME280;11158;53.404;-1.510;2022-08-19T11:19:07;100265.78;;;25.40;28.88
21988;BME280;11158;53.404;-1.510;2022-08-19T11:21:38;100266.25;;;25.18;28.14
21988;BME280;11158;53.404;-1.510;2022-08-19T11:24:06;100263.22;;;24.75;29.66
21988;BME280;11158;53.404;-1.510;2022-08-19T11:26:33;100269.75;;;24.79;29.98
21988;BME280;11158;53.404;-1.510;2022-08-19T11:29:00;100270.13;;;25.07;30.38
21988;BME280;11158;53.404;-1.510;2022-08-19T11:31:29;100266.09;;;24.50;31.31
21988;BME280;11158;53.404;-1.510;2022-08-19T11:33:57;100269.47;;;24.86;31.06
21988;BME280;11158;53.404;-1.510;2022-08-19T11:36:22;100257.72;;;25.59;30.24
21988;BME280;11158;53.404;-1.510;2022-08-19T11:38:50;100253.47;;;25.72;29.54
21988;BME280;11158;53.404;-1.510;2022-08-19T11:41:18;100255.44;;;25.66;29.87
21988;BME280;11158;53.404;-1.510;2022-08-19T11:43:44;100248.94;;;25.91;28.96
21988;BME280;11158;53.404;-1.510;2022-08-19T11:46:12;100248.34;;;25.65;29.52
21988;BME280;11158;53.404;-1.510;2022-08-19T11:48:39;100246.47;;;25.32;29.26
21988;BME280;11158;53.404;-1.510;2022-08-19T11:51:10;100260.38;;;24.96;29.58
21988;BME280;11158;53.404;-1.510;2022-08-19T11:53:36;100262.94;;;25.21;29.44
21988;BME280;11158;53.404;-1.510;2022-08-19T11:56:04;100267.66;;;25.11;29.35
21988;BME280;11158;53.404;-1.510;2022-08-19T11:58:31;100256.84;;;25.64;28.62
21988;BME280;11158;53.404;-1.510;2022-08-19T12:00:57;100252.84;;;26.09;28.32
21988;BME280;11158;53.404;-1.510;2022-08-19T12:03:23;100252.09;;;26.90;27.17
21988;BME280;11158;53.404;-1.510;2022-08-19T12:05:49;100250.81;;;26.82;27.32
21988;BME280;11158;53.404;-1.510;2022-08-19T12:08:16;100253.72;;;26.72;27.74
21988;BME280;11158;53.404;-1.510;2022-08-19T12:10:44;100253.66;;;25.81;29.03
21988;BME280;11158;53.404;-1.510;2022-08-19T12:13:12;100260.78;;;25.82;29.66
21988;BME280;11158;53.404;-1.510;2022-08-19T12:15:46;100262.22;;;25.74;29.24
21988;BME280;11158;53.404;-1.510;2022-08-19T12:18:12;100260.81;;;26.73;29.08
21988;BME280;11158;53.404;-1.510;2022-08-19T12:20:42;100259.81;;;25.97;29.72
21988;BME280;11158;53.404;-1.510;2022-08-19T12:23:09;100269.44;;;26.18;29.38
21988;BME280;11158;53.404;-1.510;2022-08-19T12:25:44;100269.19;;;25.90;29.75
21988;BME280;11158;53.404;-1.510;2022-08-19T12:28:21;100274.16;;;26.61;29.14
21988;BME280;11158;53.404;-1.510;2022-08-19T12:30:48;100265.41;;;26.10;29.45
21988;BME280;11158;53.404;-1.510;2022-08-19T12:33:15;100266.34;;;26.25;30.26
21988;BME280;11158;53.404;-1.510;2022-08-19T12:35:42;100273.63;;;26.10;30.99
21988;BME280;11158;53.404;-1.510;2022-08-19T12:38:08;100271.88;;;25.66;31.64
21988;BME280;11158;53.404;-1.510;2022-08-19T12:40:35;100282.06;;;25.90;31.26
21988;BME280;11158;53.404;-1.510;2022-08-19T12:43:01;100289.59;;;25.40;31.91
21988;BME280;11158;53.404;-1.510;2022-08-19T12:45:27;100277.78;;;26.32;30.82
21988;BME280;11158;53.404;-1.510;2022-08-19T12:47:53;100269.97;;;26.44;29.54
21988;BME280;11158;53.404;-1.510;2022-08-19T12:50:19;100279.28;;;26.19;30.63
21988;BME280;11158;53.404;-1.510;2022-08-19T12:52:47;100287.97;;;25.39;30.60
21988;BME280;11158;53.404;-1.510;2022-08-19T12:55:13;100285.31;;;24.14;33.25
21988;BME280;11158;53.404;-1.510;2022-08-19T12:57:39;100277.44;;;24.77;31.97
21988;BME280;11158;53.404;-1.510;2022-08-19T13:00:13;100286.66;;;24.86;31.62